sensor_id;sensor_type;location;lat;lon;timestamp;temperature;humidity
44851;DHT22;30583;48.714;9.386;2023-11-22T00:00:10;10.40;79.20
44851;DHT22;30583;48.714;9.386;2023-11-22T00:02:36;10.60;78.80
44851;DHT22;30583;48.714;9.386;2023-11-22T00:05:02;10.60;78.70
44851;DHT22;30583;48.714;9.386;2023-11-22T00:07:28;10.60;78.50
44851;DHT22;30583;48.714;9.386;2023-11-22T00:09:55;10.60;78.50
44851;DHT22;30583;48.714;9.386;2023-11-22T00:12:20;10.50;78.70
44851;DHT22;30583;48.714;9.386;2023-11-22T00:14:46;10.40;79.00
44851;DHT22;30583;48.714;9.386;2023-11-22T00:17:12;10.40;78.80
44851;DHT22;30583;48.714;9.386;2023-11-22T00:19:38;10.40;79.20
44851;DHT22;30583;48.714;9.386;2023-11-22T00:22:04;10.50;79.00
44851;DHT22;30583;48.714;9.386;2023-11-22T00:24:37;10.50;78.80
44851;DHT22;30583;48.714;9.386;2023-11-22T00:27:03;10.50;79.10
44851;DHT22;30583;48.714;9.386;2023-11-22T00:29:28;10.60;78.90
44851;DHT22;30583;48.714;9.386;2023-11-22T00:31:54;10.60;79.30
44851;DHT22;30583;48.714;9.386;2023-11-22T00:34:20;10.40;79.80
44851;DHT22;30583;48.714;9.386;2023-11-22T00:36:45;9.80;79.40
44851;DHT22;30583;48.714;9.386;2023-11-22T00:39:11;9.40;79.90
44851;DHT22;30583;48.714;9.386;2023-11-22T00:41:39;9.30;80.20
44851;DHT22;30583;48.714;9.386;2023-11-22T00:44:04;9.10;80.60
44851;DHT22;30583;48.714;9.386;2023-11-22T00:46:31;9.00;81.30
44851;DHT22;30583;48.714;9.386;2023-11-22T00:48:57;9.20;80.60
44851;DHT22;30583;48.714;9.386;2023-11-22T00:51:23;9.40;80.00
44851;DHT22;30583;48.714;9.386;2023-11-22T00:53:49;9.10;79.60
44851;DHT22;30583;48.714;9.386;2023-11-22T00:56:15;8.60;80.50
44851;DHT22;30583;48.714;9.386;2023-11-22T00:58:41;8.70;80.70
44851;DHT22;30583;48.714;9.386;2023-11-22T01:01:07;8.40;80.60
44851;DHT22;30583;48.714;9.386;2023-11-22T01:03:33;8.30;81.70
44851;DHT22;30583;48.714;9.386;2023-11-22T01:05:58;8.10;81.50
44851;DHT22;30583;48.714;9.386;2023-11-22T01:08:24;8.20;81.30
44851;DHT22;30583;48.714;9.386;2023-11-22T01:10:50;8.40;81.10
44851;DHT22;30583;48.714;9.386;2023-11-22T01:13:15;8.80;80.00
44851;DHT22;30583;48.714;9.386;2023-11-22T01:15:41;9.20;78.70
44851;DHT22;30583;48.714;9.386;2023-11-22T01:18:07;8.70;78.00
44851;DHT22;30583;48.714;9.386;2023-11-22T01:20:33;8.90;78.10
44851;DHT22;30583;48.714;9.386;2023-11-22T01:22:58;8.70;78.60
44851;DHT22;30583;48.714;9.386;2023-11-22T01:25:24;8.50;78.90
44851;DHT22;30583;48.714;9.386;2023-11-22T01:27:50;8.60;78.90
44851;DHT22;30583;48.714;9.386;2023-11-22T01:30:15;8.40;78.30
44851;DHT22;30583;48.714;9.386;2023-11-22T01:32:41;8.20;78.70
44851;DHT22;30583;48.714;9.386;2023-11-22T01:35:07;8.20;78.70
44851;DHT22;30583;48.714;9.386;2023-11-22T01:37:33;8.10;78.40
44851;DHT22;30583;48.714;9.386;2023-11-22T01:39:58;8.00;78.80
44851;DHT22;30583;48.714;9.386;2023-11-22T01:42:24;8.00;78.90
44851;DHT22;30583;48.714;9.386;2023-11-22T01:44:51;8.30;78.20
44851;DHT22;30583;48.714;9.386;2023-11-22T01:47:17;8.30;77.60
44851;DHT22;30583;48.714;9.386;2023-11-22T01:49:43;8.60;76.50
44851;DHT22;30583;48.714;9.386;2023-11-22T01:52:08;8.50;76.30
44851;DHT22;30583;48.714;9.386;2023-11-22T01:54:34;8.20;76.70
44851;DHT22;30583;48.714;9.386;2023-11-22T01:57:01;8.30;76.80
44851;DHT22;30583;48.714;9.386;2023-11-22T01:59:27;8.70;75.90
44851;DHT22;30583;48.714;9.386;2023-11-22T02:01:54;8.50;75.50
44851;DHT22;30583;48.714;9.386;2023-11-22T02:04:20;8.60;75.80
44851;DHT22;30583;48.714;9.386;2023-11-22T02:06:46;8.60;75.60
44851;DHT22;30583;48.714;9.386;2023-11-22T02:09:12;8.70;75.40
44851;DHT22;30583;48.714;9.386;2023-11-22T02:11:41;8.40;75.30
44851;DHT22;30583;48.714;9.386;2023-11-22T02:14:13;8.70;74.40
44851;DHT22;30583;48.714;9.386;2023-11-22T02:16:39;8.50;74.40
44851;DHT22;30583;48.714;9.386;2023-11-22T02:19:06;8.70;73.90
44851;DHT22;30583;48.714;9.386;2023-11-22T02:21:33;8.80;74.00
44851;DHT22;30583;48.714;9.386;2023-11-22T02:23:58;8.90;74.10
44851;DHT22;30583;48.714;9.386;2023-11-22T02:26:24;8.90;74.40
44851;DHT22;30583;48.714;9.386;2023-11-22T02:28:50;8.70;74.20
44851;DHT22;30583;48.714;9.386;2023-11-22T02:31:16;8.70;74.10
44851;DHT22;30583;48.714;9.386;2023-11-22T02:33:42;8.60;74.20
44851;DHT22;30583;48.714;9.386;2023-11-22T02:36:09;8.40;74.20
44851;DHT22;30583;48.714;9.386;2023-11-22T02:38:37;8.40;74.70
44851;DHT22;30583;48.714;9.386;2023-11-22T02:41:03;8.50;74.80
44851;DHT22;30583;48.714;9.386;2023-11-22T02:43:30;8.50;74.30
44851;DHT22;30583;48.714;9.386;2023-11-22T02:45:55;8.60;74.30
44851;DHT22;30583;48.714;9.386;2023-11-22T02:48:21;8.70;73.80
44851;DHT22;30583;48.714;9.386;2023-11-22T02:50:48;8.70;73.50
44851;DHT22;30583;48.714;9.386;2023-11-22T02:53:14;8.50;73.40
44851;DHT22;30583;48.714;9.386;2023-11-22T02:55:40;8.30;73.20
44851;DHT22;30583;48.714;9.386;2023-11-22T02:58:06;8.10;73.00
44851;DHT22;30583;48.714;9.386;2023-11-22T03:00:32;8.50;72.90
44851;DHT22;30583;48.714;9.386;2023-11-22T03:03:00;8.70;72.20
44851;DHT22;30583;48.714;9.386;2023-11-22T03:05:25;8.40;72.40
44851;DHT22;30583;48.714;9.386;2023-11-22T03:07:51;8.30;72.40
44851;DHT22;30583;48.714;9.386;2023-11-22T03:10:17;7.80;73.80
44851;DHT22;30583;48.714;9.386;2023-11-22T03:12:46;8.00;73.80
44851;DHT22;30583;48.714;9.386;2023-11-22T03:15:11;7.80;72.80
44851;DHT22;30583;48.714;9.386;2023-11-22T03:17:37;8.00;72.40
44851;DHT22;30583;48.714;9.386;2023-11-22T03:20:07;7.70;72.00
44851;DHT22;30583;48.714;9.386;2023-11-22T03:22:37;8.00;72.60
44851;DHT22;30583;48.714;9.386;2023-11-22T03:25:03;8.00;71.90
44851;DHT22;30583;48.714;9.386;2023-11-22T03:27:29;7.70;72.20
44851;DHT22;30583;48.714;9.386;2023-11-22T03:29:55;7.90;71.60
44851;DHT22;30583;48.714;9.386;2023-11-22T03:32:21;7.60;71.70
44851;DHT22;30583;48.714;9.386;2023-11-22T03:34:47;7.90;71.40
44851;DHT22;30583;48.714;9.386;2023-11-22T03:37:12;7.80;71.40
44851;DHT22;30583;48.714;9.386;2023-11-22T03:39:38;7.70;70.60
44851;DHT22;30583;48.714;9.386;2023-11-22T03:42:04;7.70;71.00
44851;DHT22;30583;48.714;9.386;2023-11-22T03:44:30;7.60;71.50
44851;DHT22;30583;48.714;9.386;2023-11-22T03:46:56;7.90;70.80
44851;DHT22;30583;48.714;9.386;2023-11-22T03:49:21;7.90;70.70
44851;DHT22;30583;48.714;9.386;2023-11-22T03:51:47;7.60;70.10
44851;DHT22;30583;48.714;9.386;2023-11-22T03:54:13;7.30;71.60
44851;DHT22;30583;48.714;9.386;2023-11-22T03:56:39;7.30;71.30
44851;DHT22;30583;48.714;9.386;2023-11-22T03:59:05;7.20;71.30
44851;DHT22;30583;48.714;9.386;2023-11-22T04:01:30;7.30;71.50
44851;DHT22;30583;48.714;9.386;2023-11-22T04:03:56;7.70;69.90
44851;DHT22;30583;48.714;9.386;2023-11-22T04:06:22;7.10;71.30
44851;DHT22;30583;48.714;9.386;2023-11-22T04:08:48;7.60;70.30
44851;DHT22;30583;48.714;9.386;2023-11-22T04:11:15;7.60;69.90
44851;DHT22;30583;48.714;9.386;2023-11-22T04:13:40;7.30;69.40
44851;DHT22;30583;48.714;9.386;2023-11-22T04:16:09;7.40;69.00
44851;DHT22;30583;48.714;9.386;2023-11-22T04:18:41;7.20;70.60
44851;DHT22;30583;48.714;9.386;2023-11-22T04:21:07;6.70;69.60
44851;DHT22;30583;48.714;9.386;2023-11-22T04:23:34;7.20;69.60
44851;DHT22;30583;48.714;9.386;2023-11-22T04:26:00;7.40;69.60
44851;DHT22;30583;48.714;9.386;2023-11-22T04:28:27;7.40;69.20
44851;DHT22;30583;48.714;9.386;2023-11-22T04:30:53;7.70;68.90
44851;DHT22;30583;48.714;9.386;2023-11-22T04:33:19;7.80;68.50
44851;DHT22;30583;48.714;9.386;2023-11-22T04:35:45;7.80;67.90
44851;DHT22;30583;48.714;9.386;2023-11-22T04:38:11;7.60;67.90
44851;DHT22;30583;48.714;9.386;2023-11-22T04:40:37;7.40;68.70
44851;DHT22;30583;48.714;9.386;2023-11-22T04:43:03;7.40;69.00
44851;DHT22;30583;48.714;9.386;2023-11-22T04:45:28;7.50;68.40
44851;DHT22;30583;48.714;9.386;2023-11-22T04:47:54;7.60;68.50
44851;DHT22;30583;48.714;9.386;2023-11-22T04:50:22;7.60;68.10
44851;DHT22;30583;48.714;9.386;2023-11-22T04:52:49;7.30;68.70
44851;DHT22;30583;48.714;9.386;2023-11-22T04:55:15;7.30;68.30
44851;DHT22;30583;48.714;9.386;2023-11-22T04:57:40;7.30;68.50
44851;DHT22;30583;48.714;9.386;2023-11-22T05:00:07;7.60;67.30
44851;DHT22;30583;48.714;9.386;2023-11-22T05:02:33;7.30;67.10
44851;DHT22;30583;48.714;9.386;2023-11-22T05:04:58;7.10;68.40
44851;DHT22;30583;48.714;9.386;2023-11-22T05:07:24;7.40;68.10
44851;DHT22;30583;48.714;9.386;2023-11-22T05:09:49;7.50;67.50
44851;DHT22;30583;48.714;9.386;2023-11-22T05:12:15;7.70;66.60
44851;DHT22;30583;48.714;9.386;2023-11-22T05:14:41;7.70;66.90
44851;DHT22;30583;48.714;9.386;2023-11-22T05:17:08;7.50;67.20
44851;DHT22;30583;48.714;9.386;2023-11-22T05:19:34;7.50;66.40
44851;DHT22;30583;48.714;9.386;2023-11-22T05:22:00;7.70;66.20
44851;DHT22;30583;48.714;9.386;2023-11-22T05:24:26;7.30;66.70
44851;DHT22;30583;48.714;9.386;2023-11-22T05:26:51;7.10;65.10
44851;DHT22;30583;48.714;9.386;2023-11-22T05:29:17;7.10;66.20
44851;DHT22;30583;48.714;9.386;2023-11-22T05:31:43;7.20;66.20
44851;DHT22;30583;48.714;9.386;2023-11-22T05:34:09;7.40;66.10
44851;DHT22;30583;48.714;9.386;2023-11-22T05:36:34;7.80;64.70
44851;DHT22;30583;48.714;9.386;2023-11-22T05:39:00;7.90;64.00
44851;DHT22;30583;48.714;9.386;2023-11-22T05:41:26;7.90;63.90
44851;DHT22;30583;48.714;9.386;2023-11-22T05:43:52;7.80;63.70
44851;DHT22;30583;48.714;9.386;2023-11-22T05:46:27;7.80;64.10
44851;DHT22;30583;48.714;9.386;2023-11-22T05:48:52;7.50;64.80
44851;DHT22;30583;48.714;9.386;2023-11-22T05:51:19;7.50;64.70
44851;DHT22;30583;48.714;9.386;2023-11-22T05:53:44;7.60;64.70
44851;DHT22;30583;48.714;9.386;2023-11-22T05:56:11;7.40;64.70
44851;DHT22;30583;48.714;9.386;2023-11-22T05:58:38;6.90;65.50
44851;DHT22;30583;48.714;9.386;2023-11-22T06:01:07;7.40;64.90
44851;DHT22;30583;48.714;9.386;2023-11-22T06:03:33;7.50;64.70
44851;DHT22;30583;48.714;9.386;2023-11-22T06:05:59;7.60;64.40
44851;DHT22;30583;48.714;9.386;2023-11-22T06:08:25;7.30;64.50
44851;DHT22;30583;48.714;9.386;2023-11-22T06:10:50;7.40;65.00
44851;DHT22;30583;48.714;9.386;2023-11-22T06:13:17;7.40;65.20
44851;DHT22;30583;48.714;9.386;2023-11-22T06:15:43;7.60;64.60
44851;DHT22;30583;48.714;9.386;2023-11-22T06:18:08;7.60;64.40
44851;DHT22;30583;48.714;9.386;2023-11-22T06:20:34;7.60;68.30
44851;DHT22;30583;48.714;9.386;2023-11-22T06:23:00;7.90;66.40
44851;DHT22;30583;48.714;9.386;2023-11-22T06:25:26;8.10;68.10
44851;DHT22;30583;48.714;9.386;2023-11-22T06:27:52;15.80;69.80
44851;DHT22;30583;48.714;9.386;2023-11-22T06:30:18;17.10;58.60
44851;DHT22;30583;48.714;9.386;2023-11-22T06:32:43;16.20;48.60
44851;DHT22;30583;48.714;9.386;2023-11-22T06:35:10;11.70;55.70
44851;DHT22;30583;48.714;9.386;2023-11-22T06:37:40;9.90;59.50
44851;DHT22;30583;48.714;9.386;2023-11-22T06:40:06;9.60;63.10
44851;DHT22;30583;48.714;9.386;2023-11-22T06:42:32;8.90;62.20
44851;DHT22;30583;48.714;9.386;2023-11-22T06:44:59;8.60;62.00
44851;DHT22;30583;48.714;9.386;2023-11-22T06:47:29;8.20;62.60
44851;DHT22;30583;48.714;9.386;2023-11-22T06:49:54;8.10;62.70
44851;DHT22;30583;48.714;9.386;2023-11-22T06:52:20;8.20;62.90
44851;DHT22;30583;48.714;9.386;2023-11-22T06:54:46;8.00;63.30
44851;DHT22;30583;48.714;9.386;2023-11-22T06:57:12;8.10;62.40
44851;DHT22;30583;48.714;9.386;2023-11-22T06:59:37;8.20;62.30
44851;DHT22;30583;48.714;9.386;2023-11-22T07:02:03;7.60;63.20
44851;DHT22;30583;48.714;9.386;2023-11-22T07:04:29;8.00;63.00
44851;DHT22;30583;48.714;9.386;2023-11-22T07:06:54;7.80;63.30
44851;DHT22;30583;48.714;9.386;2023-11-22T07:09:20;8.00;63.20
44851;DHT22;30583;48.714;9.386;2023-11-22T07:11:45;7.80;63.20
44851;DHT22;30583;48.714;9.386;2023-11-22T07:14:11;7.70;62.80
44851;DHT22;30583;48.714;9.386;2023-11-22T07:16:37;7.50;63.10
44851;DHT22;30583;48.714;9.386;2023-11-22T07:19:03;7.40;62.50
44851;DHT22;30583;48.714;9.386;2023-11-22T07:21:32;7.50;62.90
44851;DHT22;30583;48.714;9.386;2023-11-22T07:23:58;7.50;62.30
44851;DHT22;30583;48.714;9.386;2023-11-22T07:26:27;7.50;62.30
44851;DHT22;30583;48.714;9.386;2023-11-22T07:28:53;7.40;62.50
44851;DHT22;30583;48.714;9.386;2023-11-22T07:31:19;7.50;62.50
44851;DHT22;30583;48.714;9.386;2023-11-22T07:33:45;7.60;62.90
44851;DHT22;30583;48.714;9.386;2023-11-22T07:36:14;7.60;62.40
44851;DHT22;30583;48.714;9.386;2023-11-22T07:38:41;7.10;63.30
44851;DHT22;30583;48.714;9.386;2023-11-22T07:41:08;6.80;62.90
44851;DHT22;30583;48.714;9.386;2023-11-22T07:43:34;5.90;65.10
44851;DHT22;30583;48.714;9.386;2023-11-22T07:45:59;6.40;65.20
44851;DHT22;30583;48.714;9.386;2023-11-22T07:48:26;6.90;63.60
44851;DHT22;30583;48.714;9.386;2023-11-22T07:50:52;7.20;62.50
44851;DHT22;30583;48.714;9.386;2023-11-22T07:53:18;7.00;63.20
44851;DHT22;30583;48.714;9.386;2023-11-22T07:55:44;7.20;63.10
44851;DHT22;30583;48.714;9.386;2023-11-22T07:58:09;7.30;63.00
44851;DHT22;30583;48.714;9.386;2023-11-22T08:00:36;7.30;63.20
44851;DHT22;30583;48.714;9.386;2023-11-22T08:03:07;7.60;62.80
44851;DHT22;30583;48.714;9.386;2023-11-22T08:05:33;7.70;62.70
44851;DHT22;30583;48.714;9.386;2023-11-22T08:08:04;7.70;62.10
44851;DHT22;30583;48.714;9.386;2023-11-22T08:10:34;7.70;62.40
44851;DHT22;30583;48.714;9.386;2023-11-22T08:13:00;7.70;61.90
44851;DHT22;30583;48.714;9.386;2023-11-22T08:15:27;7.50;62.80
44851;DHT22;30583;48.714;9.386;2023-11-22T08:17:53;7.50;63.20
44851;DHT22;30583;48.714;9.386;2023-11-22T08:20:19;7.40;63.80
44851;DHT22;30583;48.714;9.386;2023-11-22T08:22:45;7.50;64.20
44851;DHT22;30583;48.714;9.386;2023-11-22T08:25:11;7.50;64.50
44851;DHT22;30583;48.714;9.386;2023-11-22T08:27:39;7.60;64.90
44851;DHT22;30583;48.714;9.386;2023-11-22T08:30:07;7.50;64.80
44851;DHT22;30583;48.714;9.386;2023-11-22T08:32:44;7.70;64.90
44851;DHT22;30583;48.714;9.386;2023-11-22T08:35:13;7.60;65.10
44851;DHT22;30583;48.714;9.386;2023-11-22T08:37:41;7.50;65.50
44851;DHT22;30583;48.714;9.386;2023-11-22T08:40:08;7.70;65.30
44851;DHT22;30583;48.714;9.386;2023-11-22T08:42:37;7.50;65.50
44851;DHT22;30583;48.714;9.386;2023-11-22T08:45:03;7.50;65.40
44851;DHT22;30583;48.714;9.386;2023-11-22T08:47:29;7.60;65.30
44851;DHT22;30583;48.714;9.386;2023-11-22T08:49:56;7.70;65.40
44851;DHT22;30583;48.714;9.386;2023-11-22T08:52:23;7.20;66.30
44851;DHT22;30583;48.714;9.386;2023-11-22T08:54:49;7.60;65.70
44851;DHT22;30583;48.714;9.386;2023-11-22T08:57:15;7.70;65.00
44851;DHT22;30583;48.714;9.386;2023-11-22T08:59:41;7.70;65.10
44851;DHT22;30583;48.714;9.386;2023-11-22T09:02:06;7.80;65.00
44851;DHT22;30583;48.714;9.386;2023-11-22T09:04:37;7.70;64.50
44851;DHT22;30583;48.714;9.386;2023-11-22T09:07:03;7.70;65.00
44851;DHT22;30583;48.714;9.386;2023-11-22T09:09:31;7.70;64.20
44851;DHT22;30583;48.714;9.386;2023-11-22T09:11:57;7.90;63.50
44851;DHT22;30583;48.714;9.386;2023-11-22T09:14:23;7.90;63.40
44851;DHT22;30583;48.714;9.386;2023-11-22T09:16:50;7.80;64.40
44851;DHT22;30583;48.714;9.386;2023-11-22T09:19:22;7.80;64.20
44851;DHT22;30583;48.714;9.386;2023-11-22T09:21:48;7.70;64.40
44851;DHT22;30583;48.714;9.386;2023-11-22T09:24:14;7.50;65.20
44851;DHT22;30583;48.714;9.386;2023-11-22T09:26:40;7.40;65.70
44851;DHT22;30583;48.714;9.386;2023-11-22T09:29:06;7.30;65.70
44851;DHT22;30583;48.714;9.386;2023-11-22T09:31:32;7.60;65.40
44851;DHT22;30583;48.714;9.386;2023-11-22T09:33:57;7.60;64.90
44851;DHT22;30583;48.714;9.386;2023-11-22T09:36:23;7.60;65.50
44851;DHT22;30583;48.714;9.386;2023-11-22T09:38:52;7.60;65.40
44851;DHT22;30583;48.714;9.386;2023-11-22T09:41:18;7.70;65.20
44851;DHT22;30583;48.714;9.386;2023-11-22T09:43:44;7.60;65.00
44851;DHT22;30583;48.714;9.386;2023-11-22T09:46:14;7.60;65.40
44851;DHT22;30583;48.714;9.386;2023-11-22T09:48:42;7.60;65.50
44851;DHT22;30583;48.714;9.386;2023-11-22T09:56:08;7.60;65.90
44851;DHT22;30583;48.714;9.386;2023-11-22T09:58:37;7.70;65.80
44851;DHT22;30583;48.714;9.386;2023-11-22T10:01:05;7.40;66.60
44851;DHT22;30583;48.714;9.386;2023-11-22T10:03:31;7.50;65.80
44851;DHT22;30583;48.714;9.386;2023-11-22T10:05:57;7.60;65.70
44851;DHT22;30583;48.714;9.386;2023-11-22T10:08:27;7.50;65.70
44851;DHT22;30583;48.714;9.386;2023-11-22T10:10:53;7.50;65.00
44851;DHT22;30583;48.714;9.386;2023-11-22T10:13:20;7.50;64.00
44851;DHT22;30583;48.714;9.386;2023-11-22T10:15:47;7.40;65.30
44851;DHT22;30583;48.714;9.386;2023-11-22T10:18:13;7.20;65.20
44851;DHT22;30583;48.714;9.386;2023-11-22T10:20:43;7.40;65.10
44851;DHT22;30583;48.714;9.386;2023-11-22T10:23:13;7.10;64.40
44851;DHT22;30583;48.714;9.386;2023-11-22T10:25:49;7.30;64.90
44851;DHT22;30583;48.714;9.386;2023-11-22T10:28:16;7.40;64.80
44851;DHT22;30583;48.714;9.386;2023-11-22T10:30:46;7.50;64.70
44851;DHT22;30583;48.714;9.386;2023-11-22T10:33:14;7.50;64.50
44851;DHT22;30583;48.714;9.386;2023-11-22T10:35:47;7.60;64.10
44851;DHT22;30583;48.714;9.386;2023-11-22T10:38:14;7.60;63.90
44851;DHT22;30583;48.714;9.386;2023-11-22T10:40:41;7.50;64.30
44851;DHT22;30583;48.714;9.386;2023-11-22T10:43:11;7.40;64.10
44851;DHT22;30583;48.714;9.386;2023-11-22T10:45:37;7.30;64.30
44851;DHT22;30583;48.714;9.386;2023-11-22T10:48:04;7.50;64.90
44851;DHT22;30583;48.714;9.386;2023-11-22T10:50:30;7.60;64.00
44851;DHT22;30583;48.714;9.386;2023-11-22T10:52:57;7.50;63.90
44851;DHT22;30583;48.714;9.386;2023-11-22T10:55:27;6.80;65.40
44851;DHT22;30583;48.714;9.386;2023-11-22T10:57:55;7.10;65.10
44851;DHT22;30583;48.714;9.386;2023-11-22T11:00:22;7.20;65.00
44851;DHT22;30583;48.714;9.386;2023-11-22T11:02:58;6.70;65.60
44851;DHT22;30583;48.714;9.386;2023-11-22T11:05:28;6.70;66.30
44851;DHT22;30583;48.714;9.386;2023-11-22T11:08:01;7.00;65.20
44851;DHT22;30583;48.714;9.386;2023-11-22T11:10:28;6.70;65.70
44851;DHT22;30583;48.714;9.386;2023-11-22T11:12:55;6.80;65.90
44851;DHT22;30583;48.714;9.386;2023-11-22T11:15:21;7.10;64.80
44851;DHT22;30583;48.714;9.386;2023-11-22T11:17:47;7.30;64.20
44851;DHT22;30583;48.714;9.386;2023-11-22T11:20:16;7.10;64.30
44851;DHT22;30583;48.714;9.386;2023-11-22T11:22:43;7.00;64.70
44851;DHT22;30583;48.714;9.386;2023-11-22T11:25:14;7.00;64.30
44851;DHT22;30583;48.714;9.386;2023-11-22T11:27:41;6.90;65.80
44851;DHT22;30583;48.714;9.386;2023-11-22T11:32:58;7.00;65.00
44851;DHT22;30583;48.714;9.386;2023-11-22T11:35:46;7.20;64.40
44851;DHT22;30583;48.714;9.386;2023-11-22T11:38:13;7.30;64.10
44851;DHT22;30583;48.714;9.386;2023-11-22T11:40:41;7.20;63.70
44851;DHT22;30583;48.714;9.386;2023-11-22T11:43:07;7.20;64.50
44851;DHT22;30583;48.714;9.386;2023-11-22T11:45:58;13.50;78.50
44851;DHT22;30583;48.714;9.386;2023-11-22T11:48:25;17.10;57.60
44851;DHT22;30583;48.714;9.386;2023-11-22T11:50:52;17.20;53.70
44851;DHT22;30583;48.714;9.386;2023-11-22T11:53:19;17.40;48.10
44851;DHT22;30583;48.714;9.386;2023-11-22T11:55:45;17.60;46.00
44851;DHT22;30583;48.714;9.386;2023-11-22T11:58:12;12.30;46.20
44851;DHT22;30583;48.714;9.386;2023-11-22T12:00:37;9.50;53.70
44851;DHT22;30583;48.714;9.386;2023-11-22T12:03:07;8.60;57.30
44851;DHT22;30583;48.714;9.386;2023-11-22T12:05:38;8.30;58.80
44851;DHT22;30583;48.714;9.386;2023-11-22T12:08:04;8.20;59.30
44851;DHT22;30583;48.714;9.386;2023-11-22T12:10:30;7.30;61.30
44851;DHT22;30583;48.714;9.386;2023-11-22T12:12:56;7.90;61.00
44851;DHT22;30583;48.714;9.386;2023-11-22T12:15:22;7.80;61.10
44851;DHT22;30583;48.714;9.386;2023-11-22T12:17:50;7.70;61.60
44851;DHT22;30583;48.714;9.386;2023-11-22T12:20:17;7.60;61.70
44851;DHT22;30583;48.714;9.386;2023-11-22T12:22:46;7.70;61.90
44851;DHT22;30583;48.714;9.386;2023-11-22T12:25:13;7.70;61.90
44851;DHT22;30583;48.714;9.386;2023-11-22T12:27:43;7.60;62.10
44851;DHT22;30583;48.714;9.386;2023-11-22T12:30:16;7.30;62.40
44851;DHT22;30583;48.714;9.386;2023-11-22T12:32:52;7.60;62.30
44851;DHT22;30583;48.714;9.386;2023-11-22T12:35:18;7.70;61.80
44851;DHT22;30583;48.714;9.386;2023-11-22T12:37:44;7.30;62.10
44851;DHT22;30583;48.714;9.386;2023-11-22T12:40:10;7.20;63.50
44851;DHT22;30583;48.714;9.386;2023-11-22T12:42:51;7.50;63.10
44851;DHT22;30583;48.714;9.386;2023-11-22T12:45:22;7.20;63.20
44851;DHT22;30583;48.714;9.386;2023-11-22T12:47:52;7.40;63.10
44851;DHT22;30583;48.714;9.386;2023-11-22T12:50:34;7.20;62.60
44851;DHT22;30583;48.714;9.386;2023-11-22T12:53:16;6.70;63.10
44851;DHT22;30583;48.714;9.386;2023-11-22T12:55:46;7.10;63.50
44851;DHT22;30583;48.714;9.386;2023-11-22T12:58:13;7.50;62.60
44851;DHT22;30583;48.714;9.386;2023-11-22T13:00:39;7.30;62.20
44851;DHT22;30583;48.714;9.386;2023-11-22T13:03:09;6.90;63.20
44851;DHT22;30583;48.714;9.386;2023-11-22T13:05:40;7.10;62.30
44851;DHT22;30583;48.714;9.386;2023-11-22T13:08:10;6.60;63.30
44851;DHT22;30583;48.714;9.386;2023-11-22T13:10:46;7.20;61.90
44851;DHT22;30583;48.714;9.386;2023-11-22T13:13:14;6.80;61.70
44851;DHT22;30583;48.714;9.386;2023-11-22T13:15:40;7.30;61.50
44851;DHT22;30583;48.714;9.386;2023-11-22T13:18:09;7.50;60.90
44851;DHT22;30583;48.714;9.386;2023-11-22T13:20:35;7.60;61.00
44851;DHT22;30583;48.714;9.386;2023-11-22T13:23:00;7.50;61.00
44851;DHT22;30583;48.714;9.386;2023-11-22T13:25:28;7.00;60.40
44851;DHT22;30583;48.714;9.386;2023-11-22T13:27:53;7.20;61.50
44851;DHT22;30583;48.714;9.386;2023-11-22T13:30:22;7.40;60.90
44851;DHT22;30583;48.714;9.386;2023-11-22T13:32:52;7.20;61.00
44851;DHT22;30583;48.714;9.386;2023-11-22T13:35:18;7.30;60.70
44851;DHT22;30583;48.714;9.386;2023-11-22T13:37:45;7.40;60.80
44851;DHT22;30583;48.714;9.386;2023-11-22T13:40:16;7.30;59.90
44851;DHT22;30583;48.714;9.386;2023-11-22T13:42:46;6.90;60.20
44851;DHT22;30583;48.714;9.386;2023-11-22T13:45:13;7.20;59.60
44851;DHT22;30583;48.714;9.386;2023-11-22T13:47:47;7.20;59.90
44851;DHT22;30583;48.714;9.386;2023-11-22T13:50:14;6.90;60.30
44851;DHT22;30583;48.714;9.386;2023-11-22T13:52:44;7.10;60.10
44851;DHT22;30583;48.714;9.386;2023-11-22T13:55:11;7.10;60.60
44851;DHT22;30583;48.714;9.386;2023-11-22T13:57:38;7.20;60.60
44851;DHT22;30583;48.714;9.386;2023-11-22T14:00:08;7.30;59.40
44851;DHT22;30583;48.714;9.386;2023-11-22T14:02:47;7.00;60.40
44851;DHT22;30583;48.714;9.386;2023-11-22T14:05:13;7.10;60.40
44851;DHT22;30583;48.714;9.386;2023-11-22T14:07:41;7.30;59.90
44851;DHT22;30583;48.714;9.386;2023-11-22T14:10:07;7.40;59.40
44851;DHT22;30583;48.714;9.386;2023-11-22T14:12:33;6.60;59.10
44851;DHT22;30583;48.714;9.386;2023-11-22T14:15:00;7.00;59.60
44851;DHT22;30583;48.714;9.386;2023-11-22T14:17:26;6.50;59.90
44851;DHT22;30583;48.714;9.386;2023-11-22T14:19:52;6.80;60.40
44851;DHT22;30583;48.714;9.386;2023-11-22T14:22:19;6.50;60.40
44851;DHT22;30583;48.714;9.386;2023-11-22T14:24:46;6.90;60.20
44851;DHT22;30583;48.714;9.386;2023-11-22T14:27:12;7.10;59.20
44851;DHT22;30583;48.714;9.386;2023-11-22T14:29:38;6.60;59.30
44851;DHT22;30583;48.714;9.386;2023-11-22T14:32:04;6.70;59.30
44851;DHT22;30583;48.714;9.386;2023-11-22T14:34:30;6.80;58.80
44851;DHT22;30583;48.714;9.386;2023-11-22T14:36:55;6.80;59.00
44851;DHT22;30583;48.714;9.386;2023-11-22T14:39:21;6.90;58.30
44851;DHT22;30583;48.714;9.386;2023-11-22T14:41:47;6.80;58.90
44851;DHT22;30583;48.714;9.386;2023-11-22T14:44:12;7.00;59.10
44851;DHT22;30583;48.714;9.386;2023-11-22T14:46:38;7.00;58.80
44851;DHT22;30583;48.714;9.386;2023-11-22T14:49:04;6.80;59.40
44851;DHT22;30583;48.714;9.386;2023-11-22T14:51:30;7.10;59.60
44851;DHT22;30583;48.714;9.386;2023-11-22T14:53:56;7.00;59.70
44851;DHT22;30583;48.714;9.386;2023-11-22T14:56:22;7.10;59.40
44851;DHT22;30583;48.714;9.386;2023-11-22T14:58:48;6.90;59.80
44851;DHT22;30583;48.714;9.386;2023-11-22T15:01:22;6.90;59.10
44851;DHT22;30583;48.714;9.386;2023-11-22T15:03:51;6.70;59.80
44851;DHT22;30583;48.714;9.386;2023-11-22T15:06:19;7.00;59.40
44851;DHT22;30583;48.714;9.386;2023-11-22T15:08:45;6.70;59.50
44851;DHT22;30583;48.714;9.386;2023-11-22T15:11:11;7.20;59.30
44851;DHT22;30583;48.714;9.386;2023-11-22T15:13:37;6.90;58.90
44851;DHT22;30583;48.714;9.386;2023-11-22T15:16:03;6.60;60.20
44851;DHT22;30583;48.714;9.386;2023-11-22T15:18:28;6.80;59.30
44851;DHT22;30583;48.714;9.386;2023-11-22T15:20:56;6.70;58.60
44851;DHT22;30583;48.714;9.386;2023-11-22T15:23:21;6.70;59.10
44851;DHT22;30583;48.714;9.386;2023-11-22T15:25:47;6.80;58.70
44851;DHT22;30583;48.714;9.386;2023-11-22T15:28:13;6.90;58.80
44851;DHT22;30583;48.714;9.386;2023-11-22T15:30:47;7.10;58.50
44851;DHT22;30583;48.714;9.386;2023-11-22T15:33:14;7.10;58.40
44851;DHT22;30583;48.714;9.386;2023-11-22T15:35:40;11.20;83.30
44851;DHT22;30583;48.714;9.386;2023-11-22T15:38:06;16.10;61.20
44851;DHT22;30583;48.714;9.386;2023-11-22T15:40:31;16.50;53.20
44851;DHT22;30583;48.714;9.386;2023-11-22T15:42:57;14.20;43.70
44851;DHT22;30583;48.714;9.386;2023-11-22T15:45:22;10.10;51.90
44851;DHT22;30583;48.714;9.386;2023-11-22T15:47:48;8.50;54.40
44851;DHT22;30583;48.714;9.386;2023-11-22T15:50:14;7.80;56.30